createdAt,value
2017-02-22T00:00:11.269Z,5.84
2017-02-22T00:00:51.794Z,5.86
2017-02-22T00:01:32.289Z,5.86
2017-02-22T00:02:12.785Z,5.72
2017-02-22T00:02:53.284Z,5.82
2017-02-22T00:03:33.840Z,5.76
2017-02-22T00:04:14.286Z,5.73
2017-02-22T00:04:54.815Z,5.87
2017-02-22T00:05:35.315Z,5.76
2017-02-22T00:06:15.833Z,5.75
2017-02-22T00:06:56.295Z,5.86
2017-02-22T00:07:36.826Z,5.83
2017-02-22T00:08:17.278Z,5.75
2017-02-22T00:08:57.814Z,5.8
2017-02-22T00:09:39.329Z,5.82
2017-02-22T00:10:19.806Z,5.86
2017-02-22T00:11:00.344Z,5.84
2017-02-22T00:11:40.900Z,5.83
2017-02-22T00:12:21.313Z,5.84
2017-02-22T00:13:01.860Z,5.8
2017-02-22T00:13:42.428Z,5.8
2017-02-22T00:14:22.910Z,5.87
2017-02-22T00:15:03.430Z,5.87
2017-02-22T00:15:43.882Z,5.84
2017-02-22T00:16:24.394Z,5.84
2017-02-22T00:17:04.896Z,5.86
2017-02-22T00:17:45.417Z,5.84
2017-02-22T00:18:25.952Z,5.9
2017-02-22T00:19:06.386Z,5.94
2017-02-22T00:19:46.878Z,5.86
2017-02-22T00:20:27.442Z,5.89
2017-02-22T00:21:07.853Z,5.91
2017-02-22T00:21:48.477Z,5.94
2017-02-22T00:22:28.951Z,5.91
2017-02-22T00:23:10.402Z,5.86
2017-02-22T00:23:50.909Z,5.94
2017-02-22T00:24:31.427Z,5.89
2017-02-22T00:25:11.945Z,5.89
2017-02-22T00:25:52.484Z,5.91
2017-02-22T00:26:32.974Z,5.9
2017-02-22T00:27:13.516Z,5.98
2017-02-22T00:27:54.006Z,5.91
2017-02-22T00:28:34.497Z,5.87
2017-02-22T00:29:14.977Z,6.02
2017-02-22T00:29:55.521Z,5.98
2017-02-22T00:30:36.012Z,6.08
2017-02-22T00:31:16.565Z,5.98
2017-02-22T00:31:57.064Z,5.98
2017-02-22T00:32:37.599Z,6.07
2017-02-22T00:33:18.044Z,6.09
2017-02-22T00:33:58.566Z,6.05
2017-02-22T00:34:39.052Z,6.08
2017-02-22T00:35:19.578Z,6.04
2017-02-22T00:36:00.089Z,6.09
2017-02-22T00:36:41.481Z,6.07
2017-02-22T00:37:22.083Z,6.11
2017-02-22T00:38:02.579Z,6.22
2017-02-22T00:38:43.063Z,6.16
2017-02-22T00:39:23.540Z,6.22
2017-02-22T00:40:04.066Z,6.19
2017-02-22T00:40:44.525Z,6.22
2017-02-22T00:41:25.050Z,6.17
2017-02-22T00:42:05.629Z,6.28
2017-02-22T00:42:46.111Z,6.26
2017-02-22T00:43:26.626Z,6.3
2017-02-22T00:44:07.227Z,6.31
2017-02-22T00:44:47.682Z,6.28
2017-02-22T00:45:28.219Z,6.27
2017-02-22T00:46:09.614Z,6.35
2017-02-22T00:46:50.099Z,6.31
2017-02-22T00:47:30.657Z,6.31
2017-02-22T00:48:11.194Z,6.38
2017-02-22T00:48:51.708Z,6.31
2017-02-22T00:49:32.195Z,6.44
2017-02-22T00:50:12.723Z,6.44
2017-02-22T00:50:53.256Z,6.44
2017-02-22T00:51:33.744Z,6.49
2017-02-22T00:52:14.352Z,6.48
2017-02-22T00:52:54.870Z,6.45
2017-02-22T00:53:35.381Z,6.49
2017-02-22T00:54:15.864Z,6.52
2017-02-22T00:54:56.395Z,6.54
2017-02-22T00:55:36.887Z,6.56
2017-02-22T00:56:17.404Z,6.57
2017-02-22T00:56:57.977Z,6.56
2017-02-22T00:57:38.448Z,6.63
2017-02-22T00:58:18.954Z,6.66
2017-02-22T00:59:00.248Z,6.63
2017-02-22T00:59:40.801Z,6.6
2017-02-22T01:00:21.308Z,6.66
2017-02-22T01:01:01.812Z,6.59
2017-02-22T01:01:42.353Z,6.62
2017-02-22T01:02:22.825Z,6.64
2017-02-22T01:03:03.350Z,6.64
2017-02-22T01:03:43.832Z,6.67
2017-02-22T01:04:25.364Z,6.67
2017-02-22T01:05:05.848Z,6.77
2017-02-22T01:05:46.371Z,6.78
2017-02-22T01:06:26.922Z,6.75
2017-02-22T01:07:07.409Z,6.74
2017-02-22T01:07:47.900Z,6.81
2017-02-22T01:08:28.445Z,6.81
2017-02-22T01:09:08.984Z,6.7
2017-02-22T01:09:49.547Z,6.77
2017-02-22T01:10:30.052Z,6.79
2017-02-22T01:11:10.532Z,6.81
2017-02-22T01:11:51.057Z,6.75
2017-02-22T01:12:31.640Z,6.84
2017-02-22T01:13:12.098Z,6.77
2017-02-22T01:13:53.630Z,6.72
2017-02-22T01:14:34.132Z,6.79
2017-02-22T01:15:14.651Z,6.84
2017-02-22T01:15:55.156Z,6.81
2017-02-22T01:16:35.689Z,6.78
2017-02-22T01:17:16.283Z,6.84
2017-02-22T01:17:56.811Z,6.77
2017-02-22T01:18:38.252Z,6.75
2017-02-22T01:19:18.776Z,6.77
2017-02-22T01:19:59.281Z,6.79
2017-02-22T01:20:39.785Z,6.66
2017-02-22T01:21:20.313Z,6.7
2017-02-22T01:22:00.789Z,6.82
2017-02-22T01:22:41.361Z,6.74
2017-02-22T01:23:21.889Z,6.67
2017-02-22T01:24:03.485Z,6.84
2017-02-22T01:24:44.013Z,6.74
2017-02-22T01:25:24.607Z,6.75
2017-02-22T01:26:05.079Z,6.74
2017-02-22T01:26:45.595Z,6.69
2017-02-22T01:27:26.171Z,6.82
2017-02-22T01:28:06.702Z,6.7
2017-02-22T01:28:47.183Z,6.81
2017-02-22T01:29:27.711Z,6.77
2017-02-22T01:30:08.246Z,6.77
2017-02-22T01:30:48.724Z,6.81
2017-02-22T01:31:29.263Z,6.72
2017-02-22T01:32:09.794Z,6.7
2017-02-22T01:32:50.341Z,6.82
2017-02-22T01:33:31.547Z,6.74
2017-02-22T01:34:12.121Z,6.79
2017-02-22T01:34:52.723Z,6.81
2017-02-22T01:35:33.232Z,6.85
2017-02-22T01:36:13.747Z,6.75
2017-02-22T01:36:54.236Z,6.77
2017-02-22T01:37:34.762Z,6.79
2017-02-22T01:38:16.286Z,6.77
2017-02-22T01:38:56.804Z,6.78
2017-02-22T01:39:37.318Z,6.77
2017-02-22T01:40:17.880Z,6.87
2017-02-22T01:40:58.404Z,6.82
2017-02-22T01:41:38.895Z,6.82
2017-02-22T01:42:19.426Z,6.89
2017-02-22T01:42:59.991Z,6.87
2017-02-22T01:43:41.433Z,6.99
2017-02-22T01:44:21.935Z,6.97
2017-02-22T01:45:02.460Z,6.88
2017-02-22T01:45:43.001Z,6.92
2017-02-22T01:46:23.709Z,6.92
2017-02-22T01:47:04.285Z,6.92
2017-02-22T01:47:44.817Z,6.88
2017-02-22T01:48:25.315Z,6.87
2017-02-22T01:49:05.825Z,6.92
2017-02-22T01:49:46.380Z,6.99
2017-02-22T01:50:26.833Z,7
2017-02-22T01:51:07.372Z,7.02
2017-02-22T01:51:47.904Z,6.99
2017-02-22T01:52:28.444Z,6.96
2017-02-22T01:53:09.601Z,7.02
2017-02-22T01:53:50.145Z,7
2017-02-22T01:54:30.693Z,7.06
2017-02-22T01:55:11.226Z,7.03
2017-02-22T01:55:51.775Z,6.99
2017-02-22T01:56:32.283Z,7.02
2017-02-22T01:57:12.829Z,6.97
2017-02-22T01:57:54.358Z,6.99
2017-02-22T01:58:34.900Z,7.1
2017-02-22T01:59:15.457Z,6.96
2017-02-22T01:59:55.923Z,7.11
2017-02-22T02:00:36.478Z,7.15
2017-02-22T02:01:17.060Z,7.11
2017-02-22T02:01:57.582Z,7.14
2017-02-22T02:02:38.057Z,7.15
2017-02-22T02:03:19.461Z,7.14
2017-02-22T02:03:59.964Z,7.15
2017-02-22T02:04:40.468Z,7.25
2017-02-22T02:05:21.040Z,7.17
2017-02-22T02:06:01.545Z,7.13
2017-02-22T02:06:42.027Z,7.21
2017-02-22T02:07:22.587Z,7.24
2017-02-22T02:08:03.122Z,7.24
2017-02-22T02:08:43.695Z,7.24
2017-02-22T02:09:24.251Z,7.28
2017-02-22T02:10:04.766Z,7.28
2017-02-22T02:10:45.320Z,7.28
2017-02-22T02:11:25.887Z,7.28
2017-02-22T02:12:06.406Z,7.28
2017-02-22T02:12:47.612Z,7.28
2017-02-22T02:13:28.147Z,7.24
2017-02-22T02:14:08.678Z,7.31
2017-02-22T02:14:49.235Z,7.28
2017-02-22T02:15:29.732Z,7.35
2017-02-22T02:16:10.283Z,7.4
2017-02-22T02:16:50.802Z,7.4
2017-02-22T02:17:32.324Z,7.48
2017-02-22T02:18:12.834Z,7.47
2017-02-22T02:18:53.378Z,7.57
2017-02-22T02:19:33.864Z,7.5
2017-02-22T02:20:14.408Z,7.47
2017-02-22T02:20:54.878Z,7.48
2017-02-22T02:21:35.445Z,7.47
2017-02-22T02:22:15.975Z,7.5
2017-02-22T02:22:57.475Z,7.47
2017-02-22T02:23:38.003Z,7.5
2017-02-22T02:24:18.642Z,7.53
2017-02-22T02:24:59.157Z,7.51
2017-02-22T02:25:39.679Z,7.47
2017-02-22T02:26:20.235Z,7.48
2017-02-22T02:27:00.755Z,7.45
2017-02-22T02:27:41.288Z,7.43
2017-02-22T02:28:21.818Z,7.45
2017-02-22T02:29:02.389Z,7.5
2017-02-22T02:29:42.889Z,7.48
2017-02-22T02:30:23.416Z,7.48
2017-02-22T02:31:03.951Z,7.54
2017-02-22T02:31:44.517Z,7.48
2017-02-22T02:32:25.676Z,7.47
2017-02-22T02:33:06.192Z,7.5
2017-02-22T02:33:46.705Z,7.47
2017-02-22T02:34:27.176Z,7.42
2017-02-22T02:35:07.737Z,7.53
2017-02-22T02:35:48.218Z,7.57
2017-02-22T02:36:28.996Z,7.53
2017-02-22T02:37:10.386Z,7.48
2017-02-22T02:37:50.892Z,7.53
2017-02-22T02:38:31.420Z,7.5
2017-02-22T02:39:11.898Z,7.5
2017-02-22T02:39:52.429Z,7.47
2017-02-22T02:40:32.945Z,7.45
2017-02-22T02:41:13.481Z,7.42
2017-02-22T02:41:54.004Z,7.47
2017-02-22T02:42:35.522Z,7.43
2017-02-22T02:43:16.052Z,7.39
2017-02-22T02:43:56.563Z,7.43
2017-02-22T02:44:37.115Z,7.43
2017-02-22T02:45:17.563Z,7.4
2017-02-22T02:45:58.083Z,7.36
2017-02-22T02:46:38.588Z,7.45
2017-02-22T02:47:19.104Z,7.38
2017-02-22T02:47:59.606Z,7.32
2017-02-22T02:48:40.135Z,7.29
2017-02-22T02:49:20.645Z,7.31
2017-02-22T02:50:01.155Z,7.21
2017-02-22T02:50:41.681Z,7.11
2017-02-22T02:51:22.214Z,7.11
2017-02-22T02:52:03.733Z,7.15
2017-02-22T02:52:44.217Z,7.14
2017-02-22T02:53:24.746Z,7.11
2017-02-22T02:54:05.257Z,7.2
2017-02-22T02:54:45.796Z,7.14
2017-02-22T02:55:26.288Z,7.14
2017-02-22T02:56:06.796Z,7.14
2017-02-22T02:56:47.322Z,7.11
2017-02-22T02:57:27.825Z,7.11
2017-02-22T02:58:08.410Z,7.05
2017-02-22T02:58:48.875Z,7.11
2017-02-22T02:59:29.429Z,7.03
2017-02-22T03:00:09.908Z,7
2017-02-22T03:00:50.465Z,6.99
2017-02-22T03:01:31.834Z,7.02
2017-02-22T03:02:12.376Z,7.03
2017-02-22T03:02:52.917Z,7.03
2017-02-22T03:03:33.423Z,7.03
2017-02-22T03:04:13.962Z,7.03
2017-02-22T03:04:54.449Z,7.03
2017-02-22T03:05:34.960Z,7.02
2017-02-22T03:06:15.473Z,6.97
2017-02-22T03:06:56.000Z,6.93
2017-02-22T03:07:36.529Z,6.92
2017-02-22T03:08:17.058Z,6.93
2017-02-22T03:08:57.583Z,6.89
2017-02-22T03:09:38.104Z,6.93
2017-02-22T03:10:18.761Z,6.92
2017-02-22T03:10:59.326Z,6.92
2017-02-22T03:11:39.835Z,6.92
2017-02-22T03:40:01.826Z,-40
2017-02-22T03:40:50.206Z,-39.49
2017-02-22T03:41:38.690Z,-39.49
2017-02-22T03:42:27.006Z,-39.49
2017-02-22T03:56:50.324Z,-40
2017-02-22T04:07:48.116Z,6.3
2017-02-22T04:08:36.990Z,6.33
2017-02-22T04:09:25.484Z,6.38
2017-02-22T04:10:13.956Z,6.28
2017-02-22T04:11:02.763Z,6.33
2017-02-22T04:11:51.355Z,6.3
2017-02-22T04:12:39.746Z,6.31
2017-02-22T04:13:28.383Z,6.36
2017-02-22T04:14:16.608Z,6.33
2017-02-22T04:19:19.853Z,6.41
2017-02-22T04:20:08.562Z,6.39
2017-02-22T04:20:57.050Z,6.45
2017-02-22T04:21:46.054Z,6.45
2017-02-22T04:22:34.102Z,6.51
2017-02-22T04:23:22.989Z,6.51
2017-02-22T04:24:11.364Z,6.56
2017-02-22T04:24:59.795Z,6.51
2017-02-22T04:25:47.969Z,6.57
2017-02-22T04:26:36.758Z,6.57
2017-02-22T04:27:24.819Z,6.54
2017-02-22T04:28:13.757Z,6.54
2017-02-22T04:29:02.304Z,6.57
2017-02-22T04:29:50.890Z,6.54
2017-02-22T04:30:39.109Z,6.46
2017-02-22T04:31:27.266Z,6.51
2017-02-22T04:32:15.652Z,6.57
2017-02-22T04:33:04.288Z,6.56
2017-02-22T04:33:52.557Z,6.77
